createdAt,value
2023-03-05T00:02:07.075Z,21.17
2023-03-05T00:04:35.448Z,21.38
2023-03-05T00:07:03.818Z,24.08
2023-03-05T00:09:34.296Z,25.92
2023-03-05T00:12:03.249Z,84.72
2023-03-05T00:17:13.259Z,35.67
2023-03-05T00:19:41.590Z,29.80
2023-03-05T00:22:09.966Z,32.28
2023-03-05T00:24:38.368Z,33.22
2023-03-05T00:27:06.698Z,28.60
2023-03-05T00:29:35.030Z,28.00
2023-03-05T00:47:42.400Z,30.98
2023-03-05T00:50:12.631Z,26.90
2023-03-05T00:52:41.009Z,28.48
2023-03-05T00:55:11.122Z,28.10
2023-03-05T00:57:39.646Z,24.45
2023-03-05T01:47:17.139Z,17.45
2023-03-05T01:49:45.753Z,18.33
2023-03-05T01:52:18.820Z,18.75
2023-03-05T01:54:51.465Z,18.80
2023-03-05T01:57:24.928Z,20.52
2023-03-05T02:00:02.650Z,18.52
2023-03-05T02:48:04.068Z,17.00
2023-03-05T02:50:34.100Z,14.95
2023-03-05T02:53:02.646Z,14.98
2023-03-05T02:55:31.670Z,13.23
2023-03-05T02:58:01.356Z,12.70
2023-03-05T03:48:01.151Z,11.43
2023-03-05T03:50:29.668Z,12.98
2023-03-05T03:52:58.176Z,10.82
2023-03-05T03:55:26.820Z,11.00
2023-03-05T03:57:55.328Z,8.73
2023-03-05T04:47:14.119Z,10.27
2023-03-05T04:49:42.721Z,10.23
2023-03-05T04:52:12.841Z,9.65
2023-03-05T04:54:41.489Z,7.93
2023-03-05T04:57:10.736Z,7.97
2023-03-05T04:59:39.411Z,8.95
2023-03-05T05:47:32.240Z,8.30
2023-03-05T05:50:00.945Z,8.68
2023-03-05T05:52:29.407Z,6.35
2023-03-05T05:54:57.922Z,8.13
2023-03-05T05:57:26.289Z,8.02
2023-03-05T05:59:54.723Z,7.68
2023-03-05T06:02:23.049Z,7.75
2023-03-05T06:04:52.896Z,6.65
2023-03-05T06:07:21.257Z,8.65
2023-03-05T06:09:49.602Z,7.10
2023-03-05T06:12:17.979Z,8.23
2023-03-05T06:14:46.410Z,8.63
2023-03-05T06:17:21.895Z,8.02
2023-03-05T06:19:58.319Z,6.85
2023-03-05T06:22:26.958Z,7.85
2023-03-05T06:24:55.314Z,6.78
2023-03-05T06:27:23.763Z,5.85
2023-03-05T06:29:56.655Z,7.00
2023-03-05T06:32:25.311Z,7.35
2023-03-05T06:34:53.916Z,7.45
2023-03-05T06:37:23.731Z,5.75
2023-03-05T06:39:52.192Z,4.95
2023-03-05T06:42:20.709Z,7.13
2023-03-05T06:44:49.111Z,7.18
2023-03-05T06:47:17.491Z,5.97
2023-03-05T06:49:45.793Z,6.60
2023-03-05T06:52:14.179Z,5.80
2023-03-05T06:54:43.984Z,7.00
2023-03-05T06:57:13.593Z,5.70
2023-03-05T06:59:42.021Z,4.95
2023-03-05T07:02:13.550Z,8.60
2023-03-05T07:04:42.025Z,8.00
2023-03-05T07:07:10.411Z,11.57
2023-03-05T07:09:42.874Z,7.75
2023-03-05T07:12:12.972Z,8.25
2023-03-05T07:14:41.421Z,8.00
2023-03-05T07:17:09.893Z,6.53
2023-03-05T07:19:39.947Z,6.88
2023-03-05T07:22:08.868Z,7.40
2023-03-05T07:24:37.819Z,11.63
2023-03-05T07:27:06.292Z,6.78
2023-03-05T07:29:36.037Z,9.10
2023-03-05T07:32:04.731Z,5.32
2023-03-05T07:34:33.137Z,6.50
2023-03-05T07:37:01.608Z,4.88
2023-03-05T07:39:29.954Z,7.63
2023-03-05T07:41:58.331Z,9.30
2023-03-05T07:44:32.039Z,8.27
2023-03-05T07:47:01.792Z,5.43
2023-03-05T07:49:30.110Z,5.30
2023-03-05T07:51:58.694Z,7.50
2023-03-05T07:54:27.035Z,5.50
2023-03-05T07:56:56.418Z,4.78
2023-03-05T07:59:24.791Z,8.57
2023-03-05T08:01:53.119Z,8.68
2023-03-05T08:04:22.940Z,7.07
2023-03-05T08:06:52.483Z,8.88
2023-03-05T08:09:22.128Z,9.88
2023-03-05T08:11:50.583Z,5.82
2023-03-05T08:14:19.245Z,6.35
2023-03-05T08:16:50.432Z,5.78
2023-03-05T08:19:19.094Z,3.10
2023-03-05T08:21:49.368Z,3.95
2023-03-05T08:24:17.846Z,4.68
2023-03-05T08:26:46.336Z,4.13
2023-03-05T08:29:14.832Z,7.65
2023-03-05T08:31:47.936Z,3.45
2023-03-05T08:34:16.797Z,6.20
2023-03-05T08:36:45.269Z,5.53
2023-03-05T08:39:15.246Z,3.75
2023-03-05T08:41:43.690Z,6.15
2023-03-05T08:44:12.640Z,3.97
2023-03-05T08:46:41.449Z,2.58
2023-03-05T08:49:11.114Z,3.58
2023-03-05T08:51:39.580Z,5.80
2023-03-05T08:54:08.437Z,5.85
2023-03-05T08:56:38.698Z,6.20
2023-03-05T08:59:08.565Z,4.13
2023-03-05T09:01:36.993Z,3.70
2023-03-05T09:04:05.547Z,3.38
2023-03-05T09:06:34.521Z,4.35
2023-03-05T09:09:02.961Z,6.85
2023-03-05T09:11:31.393Z,2.55
2023-03-05T09:14:01.193Z,5.60
2023-03-05T09:16:29.761Z,2.30
2023-03-05T09:18:58.163Z,3.30
2023-03-05T09:21:26.955Z,3.78
2023-03-05T09:23:59.586Z,3.10
2023-03-05T09:26:28.492Z,4.45
2023-03-05T09:28:57.010Z,4.88
2023-03-05T09:31:26.866Z,3.08
2023-03-05T09:33:55.271Z,4.03
2023-03-05T09:36:27.253Z,2.45
2023-03-05T09:38:56.091Z,4.00
2023-03-05T09:41:37.060Z,4.18
2023-03-05T09:44:23.580Z,3.70
2023-03-05T09:46:57.066Z,3.10
2023-03-05T09:49:40.679Z,3.97
2023-03-05T09:52:17.804Z,5.60
2023-03-05T09:54:49.182Z,5.15
2023-03-05T09:57:23.621Z,3.47
2023-03-05T09:59:57.868Z,4.13
2023-03-05T10:02:31.673Z,3.78
2023-03-05T10:05:13.206Z,5.25
2023-03-05T10:07:46.437Z,6.05
2023-03-05T10:10:22.630Z,5.53
2023-03-05T10:12:57.237Z,4.97
2023-03-05T10:15:37.942Z,5.03
2023-03-05T10:18:20.763Z,3.75
2023-03-05T10:20:59.539Z,4.55
2023-03-05T10:23:34.514Z,4.25
2023-03-05T10:26:16.305Z,5.00
2023-03-05T10:28:56.504Z,5.20
2023-03-05T10:31:55.514Z,8.00
2023-03-05T10:35:03.374Z,6.60
2023-03-05T10:38:05.382Z,5.45
2023-03-05T10:40:41.288Z,6.28
2023-03-05T10:43:23.562Z,5.28
2023-03-05T10:45:55.138Z,6.47
2023-03-05T10:48:35.414Z,9.05
2023-03-05T10:51:14.758Z,6.35
2023-03-05T10:53:55.950Z,8.23
2023-03-05T10:56:27.444Z,5.68
2023-03-05T10:58:56.425Z,4.43
2023-03-05T11:01:28.075Z,8.10
2023-03-05T11:04:00.128Z,5.95
2023-03-05T11:06:37.358Z,4.25
2023-03-05T11:09:28.443Z,5.88
2023-03-05T11:12:15.004Z,4.72
2023-03-05T11:14:45.785Z,8.02
2023-03-05T11:17:32.385Z,4.07
2023-03-05T11:20:39.898Z,3.88
2023-03-05T11:23:14.903Z,5.22
2023-03-05T11:26:00.916Z,3.25
2023-03-05T11:28:34.170Z,11.63
2023-03-05T11:31:20.671Z,5.82
2023-03-05T11:33:59.972Z,7.85
2023-03-05T11:36:32.001Z,6.90
2023-03-05T11:39:12.444Z,7.15
2023-03-05T11:41:43.802Z,4.70
2023-03-05T11:44:15.709Z,4.22
2023-03-05T11:46:48.005Z,4.40
2023-03-05T11:49:21.335Z,6.82
2023-03-05T11:52:00.866Z,8.57
2023-03-05T11:54:40.440Z,5.40
2023-03-05T11:57:14.426Z,5.82
2023-03-05T11:59:44.131Z,3.75
2023-03-05T12:02:21.303Z,4.97
2023-03-05T12:04:51.504Z,3.42
2023-03-05T12:07:24.867Z,3.95
2023-03-05T12:09:55.857Z,5.05
2023-03-05T12:12:40.836Z,5.05
2023-03-05T12:15:36.868Z,4.95
2023-03-05T12:18:36.215Z,6.85
2023-03-05T12:21:09.108Z,11.52
2023-03-05T12:23:49.635Z,3.05
2023-03-05T12:26:20.071Z,8.85
2023-03-05T12:28:59.063Z,4.30
2023-03-05T12:31:38.810Z,5.30
2023-03-05T12:34:50.080Z,3.83
2023-03-05T12:37:59.650Z,9.45
2023-03-05T12:40:31.181Z,5.22
2023-03-05T12:43:02.819Z,4.22
2023-03-05T12:45:35.207Z,5.13
2023-03-05T12:48:46.380Z,5.85
2023-03-05T12:51:30.928Z,39.17
2023-03-05T12:54:11.567Z,48.30
2023-03-05T12:56:46.931Z,44.15
2023-03-05T12:59:20.030Z,43.42
2023-03-05T13:01:56.212Z,38.25
2023-03-05T13:04:28.284Z,36.17
2023-03-05T13:07:01.897Z,37.60
2023-03-05T13:09:34.856Z,34.38
2023-03-05T13:12:10.594Z,33.67
2023-03-05T13:14:43.987Z,34.60
2023-03-05T13:17:53.871Z,35.58
2023-03-05T13:20:34.432Z,37.30
2023-03-05T13:23:19.820Z,31.30
2023-03-05T13:26:03.995Z,32.00
2023-03-05T13:28:33.859Z,34.00
2023-03-05T13:31:13.258Z,31.02
2023-03-05T13:33:41.843Z,30.85
2023-03-05T13:36:17.144Z,26.85
2023-03-05T13:38:48.161Z,25.45
2023-03-05T13:41:23.280Z,25.52
2023-03-05T13:43:54.760Z,23.65
2023-03-05T13:46:32.269Z,20.85
2023-03-05T13:49:20.405Z,20.52
2023-03-05T13:51:51.262Z,18.67
2023-03-05T13:54:21.082Z,18.67
2023-03-05T13:56:56.541Z,24.73
2023-03-05T13:59:29.506Z,16.88
2023-03-05T14:02:00.816Z,16.13
2023-03-05T14:04:31.358Z,15.50
2023-03-05T14:07:04.313Z,16.95
2023-03-05T14:09:46.973Z,17.30
2023-03-05T14:12:30.323Z,13.50
2023-03-05T14:14:59.949Z,15.23
2023-03-05T14:17:44.886Z,11.40
2023-03-05T14:20:27.316Z,15.48
2023-03-05T14:22:58.138Z,14.07
2023-03-05T14:25:38.423Z,14.68
2023-03-05T14:28:26.046Z,12.98
2023-03-05T14:30:57.029Z,10.27
2023-03-05T14:33:30.592Z,13.88
2023-03-05T14:36:01.312Z,10.18
2023-03-05T14:38:34.070Z,13.13
2023-03-05T14:41:32.103Z,12.52
2023-03-05T14:44:00.814Z,10.50
2023-03-05T14:46:29.862Z,10.48
2023-03-05T14:48:59.656Z,10.20
2023-03-05T14:51:28.035Z,8.80
2023-03-05T14:53:57.930Z,9.00
2023-03-05T14:56:29.145Z,8.38
2023-03-05T14:58:57.608Z,8.57
2023-03-05T15:01:26.551Z,5.93
2023-03-05T15:03:54.981Z,7.57
2023-03-05T15:06:32.759Z,7.90
2023-03-05T15:09:01.616Z,6.85
2023-03-05T15:11:30.015Z,7.65
2023-03-05T15:13:58.495Z,7.80
2023-03-05T15:16:27.143Z,7.85
2023-03-05T15:18:55.491Z,8.75
2023-03-05T15:21:25.315Z,7.38
2023-03-05T15:23:53.760Z,7.57
2023-03-05T15:26:22.686Z,5.72
2023-03-05T15:28:51.102Z,9.45
2023-03-05T15:31:19.554Z,5.63
2023-03-05T15:33:47.996Z,8.43
2023-03-05T15:36:16.447Z,7.53
2023-03-05T15:38:47.948Z,8.38
2023-03-05T15:41:17.564Z,10.88
2023-03-05T15:43:46.027Z,11.63
2023-03-05T15:46:14.756Z,10.75
2023-03-05T15:48:49.765Z,12.38
2023-03-05T15:51:20.076Z,11.60
2023-03-05T15:53:49.893Z,9.02
2023-03-05T15:56:19.664Z,10.25
2023-03-05T15:58:50.967Z,12.90
2023-03-05T16:01:20.713Z,10.10
2023-03-05T16:03:49.118Z,12.48
2023-03-05T16:06:22.782Z,10.27
2023-03-05T16:08:56.655Z,11.10
2023-03-05T16:11:25.147Z,12.57
2023-03-05T16:13:53.515Z,9.25
2023-03-05T16:16:23.651Z,8.65
2023-03-05T16:18:53.454Z,10.65
2023-03-05T16:21:22.139Z,9.70
2023-03-05T16:23:51.901Z,12.18
2023-03-05T16:26:20.333Z,12.68
2023-03-05T16:28:48.704Z,9.15
2023-03-05T16:31:17.438Z,7.95
2023-03-05T16:33:45.916Z,8.25
2023-03-05T16:36:24.784Z,8.60
2023-03-05T16:38:56.830Z,6.60
2023-03-05T16:41:26.324Z,10.52
2023-03-05T16:43:56.432Z,11.07
2023-03-05T16:46:25.673Z,8.95
2023-03-05T16:48:54.421Z,10.30
2023-03-05T16:51:23.257Z,9.23
2023-03-05T16:53:51.990Z,7.97
2023-03-05T16:56:21.996Z,7.10
2023-03-05T16:58:53.213Z,9.70
2023-03-05T17:01:23.566Z,8.23
2023-03-05T17:03:53.526Z,7.13
2023-03-05T17:06:24.990Z,7.55
2023-03-05T17:08:54.030Z,7.15
2023-03-05T17:11:25.632Z,7.95
2023-03-05T17:13:54.339Z,9.38
2023-03-05T17:16:23.443Z,8.27
2023-03-05T17:18:52.116Z,7.78
2023-03-05T17:21:20.418Z,8.50
2023-03-05T17:23:48.898Z,7.88
2023-03-05T17:26:20.166Z,7.43
2023-03-05T17:28:50.394Z,7.75
2023-03-05T17:31:18.946Z,8.90
2023-03-05T17:33:47.367Z,9.10
2023-03-05T17:36:18.181Z,9.82
2023-03-05T17:38:48.163Z,7.72
2023-03-05T17:41:17.699Z,7.57
2023-03-05T17:43:46.766Z,6.38
2023-03-05T17:46:17.983Z,9.20
2023-03-05T17:48:46.439Z,6.85
2023-03-05T17:51:17.364Z,9.57
2023-03-05T17:53:46.475Z,30.58
2023-03-05T17:56:17.312Z,145.75
2023-03-05T17:58:45.851Z,118.88
2023-03-05T18:01:22.918Z,103.20
2023-03-05T18:03:51.787Z,111.78
2023-03-05T18:06:21.000Z,101.43
2023-03-05T18:08:50.328Z,124.25
2023-03-05T18:11:20.164Z,107.18
2023-03-05T18:13:48.897Z,587.83
2023-03-05T18:16:19.103Z,837.42
2023-03-05T18:18:47.619Z,1256.80
2023-03-05T18:21:21.150Z,936.67
2023-03-05T18:23:51.001Z,865.17
2023-03-05T18:26:20.049Z,773.67
2023-03-05T18:28:48.639Z,696.13
2023-03-05T18:31:18.904Z,620.20
2023-03-05T18:33:47.551Z,595.03
2023-03-05T18:36:16.273Z,577.10
2023-03-05T18:38:44.975Z,561.63
2023-03-05T18:41:21.666Z,543.78
2023-03-05T18:43:50.776Z,526.33
2023-03-05T18:46:21.401Z,529.80
2023-03-05T18:48:50.101Z,509.73
2023-03-05T18:51:21.636Z,470.60
2023-03-05T18:53:51.967Z,428.17
2023-03-05T18:56:20.496Z,364.95
2023-03-05T18:58:49.289Z,301.85
2023-03-05T19:01:20.283Z,269.05
2023-03-05T19:03:50.125Z,248.57
2023-03-05T19:06:18.803Z,256.35
2023-03-05T19:08:50.729Z,238.18
2023-03-05T19:11:21.784Z,244.15
2023-03-05T19:13:51.485Z,232.23
2023-03-05T19:16:24.812Z,219.20
2023-03-05T19:19:03.925Z,153.82
2023-03-05T19:21:33.362Z,112.03
2023-03-05T19:24:01.879Z,83.82
2023-03-05T19:26:30.770Z,60.92
2023-03-05T19:28:59.387Z,69.05
2023-03-05T19:31:29.589Z,60.63
2023-03-05T19:33:58.298Z,22.88
2023-03-05T19:36:26.809Z,12.63
2023-03-05T19:38:55.347Z,12.93
2023-03-05T19:41:23.991Z,20.48
2023-03-05T19:43:52.817Z,36.00
2023-03-05T19:46:21.426Z,25.73
2023-03-05T19:48:51.423Z,22.05
2023-03-05T19:51:24.273Z,19.40
2023-03-05T19:53:53.159Z,19.15
2023-03-05T19:56:22.529Z,18.52
2023-03-05T19:58:51.472Z,17.90
2023-03-05T20:01:23.643Z,17.77
2023-03-05T20:03:55.844Z,18.00
2023-03-05T20:06:25.787Z,19.40
2023-03-05T20:08:54.763Z,17.05
2023-03-05T20:11:24.587Z,14.73
2023-03-05T20:13:54.110Z,15.32
2023-03-05T20:16:25.216Z,13.05
2023-03-05T20:18:57.862Z,15.48
2023-03-05T20:21:29.050Z,19.13
2023-03-05T20:24:00.126Z,15.02
2023-03-05T20:26:29.098Z,14.40
2023-03-05T20:28:58.917Z,14.13
2023-03-05T20:31:28.888Z,13.85
2023-03-05T20:33:58.839Z,10.98
2023-03-05T20:36:27.507Z,10.30
2023-03-05T20:38:55.984Z,10.98
2023-03-05T20:41:25.281Z,13.02
2023-03-05T20:43:53.906Z,10.25
2023-03-05T20:46:24.968Z,25.23
2023-03-05T20:48:57.707Z,9.77
2023-03-05T20:51:30.254Z,12.38
2023-03-05T20:54:03.916Z,13.70
2023-03-05T20:56:34.957Z,13.70
2023-03-05T20:59:07.517Z,10.95
2023-03-05T21:01:38.358Z,12.65
2023-03-05T21:04:08.913Z,11.18
2023-03-05T21:06:38.956Z,9.38
2023-03-05T21:09:07.761Z,10.07
2023-03-05T21:11:37.247Z,9.68
2023-03-05T21:14:05.762Z,10.63
2023-03-05T21:16:34.401Z,8.68
2023-03-05T21:19:03.072Z,11.63
2023-03-05T21:21:31.678Z,8.35
2023-03-05T21:24:01.733Z,8.27
2023-03-05T21:26:30.248Z,8.60
2023-03-05T21:28:58.787Z,8.52
2023-03-05T21:31:27.431Z,8.57
2023-03-05T21:33:56.060Z,10.65
2023-03-05T21:36:24.526Z,8.38
2023-03-05T21:38:53.077Z,7.82
2023-03-05T21:41:23.795Z,6.82
2023-03-05T21:43:52.467Z,8.57
2023-03-05T21:46:20.965Z,6.32
2023-03-05T21:48:49.452Z,6.00
2023-03-05T21:51:26.917Z,12.93
2023-03-05T21:53:55.612Z,7.65
2023-03-05T21:56:26.406Z,5.78
2023-03-05T21:58:55.337Z,6.47
2023-03-05T22:01:23.930Z,5.13
2023-03-05T22:03:53.930Z,8.90
2023-03-05T22:06:22.674Z,8.68
2023-03-05T22:08:51.200Z,5.63
2023-03-05T22:11:20.837Z,8.10
2023-03-05T22:13:50.796Z,7.47
2023-03-05T22:16:24.331Z,5.45
2023-03-05T22:18:53.003Z,8.27
2023-03-05T22:21:25.222Z,9.95
2023-03-05T22:23:54.415Z,8.30
2023-03-05T22:26:23.024Z,5.50
2023-03-05T22:28:53.323Z,6.93
2023-03-05T22:31:24.020Z,9.80
2023-03-05T22:33:52.511Z,6.20
2023-03-05T22:36:22.503Z,9.57
2023-03-05T22:38:51.360Z,7.53
2023-03-05T22:41:21.545Z,6.97
2023-03-05T22:43:52.649Z,7.97
2023-03-05T22:46:23.993Z,9.63
2023-03-05T22:48:53.562Z,7.32
2023-03-05T22:51:22.613Z,7.20
2023-03-05T22:53:51.273Z,6.50
2023-03-05T22:56:22.013Z,8.82
2023-03-05T22:58:51.874Z,6.25
2023-03-05T23:01:23.257Z,6.68
2023-03-05T23:03:58.627Z,5.43
2023-03-05T23:06:27.411Z,4.47
2023-03-05T23:08:55.927Z,7.45
2023-03-05T23:11:24.339Z,6.70
2023-03-05T23:13:54.259Z,4.18
2023-03-05T23:16:22.731Z,5.70
2023-03-05T23:18:51.321Z,6.15
2023-03-05T23:21:20.245Z,7.38
2023-03-05T23:23:48.854Z,5.28
2023-03-05T23:26:17.532Z,9.55
2023-03-05T23:28:46.120Z,3.70
2023-03-05T23:31:19.271Z,6.32
2023-03-05T23:33:48.059Z,4.75
2023-03-05T23:36:19.836Z,6.82
2023-03-05T23:38:49.030Z,5.57
2023-03-05T23:41:17.663Z,6.28
2023-03-05T23:43:46.310Z,5.93
2023-03-05T23:46:16.653Z,4.78
2023-03-05T23:48:45.529Z,5.60
2023-03-05T23:51:14.221Z,6.28
2023-03-05T23:53:42.964Z,4.25
2023-03-05T23:56:12.373Z,5.68
2023-03-05T23:58:42.664Z,7.80
